CFG6931 EDDL-HEGN
Flight info
| Callsign | CFG6931 |
|---|---|
| Flight time | 4h 17m |
| Altitude | 37000 |
| Route | DODEN7Z DODEN Y853 BOMBI DCT DETEV DCT DINKU/N0425F330 M867 XERUM DCT BAVAX DCT RADIZ/N0441F370 DCT ZARVE DCT NEMEK DCT GLOMY DCT LEBGA DCT DIMIS UL604 IPTES/N0442F390 UL604 SALUN N705 MMA P751 DASUM Y234 FYM M872 BOPOB BOPOB1A |
| Aircraft | A20N/M-SDE2E3FGHIRWXY/LB1 |
Departure
| Time | 2026-05-01 10:30 |
|---|---|
| Airport | Düsseldorf Airport (EDDL) |
Arrival
| Time | 2026-05-01 14:47 |
|---|---|
| Airport | Hurghada International Airport (HEGN) |
| Time | Latitude | Longitude | Altitude | Speed | Heading |
|---|---|---|---|---|---|
| 2026-05-01 10:06 | 51.28053 | 6.76374 | 124 ft | 0 kts | 197° |
| 2026-05-01 10:21 | 51.28071 | 6.76384 | 125 ft | 3 kts | 217° |
| 2026-05-01 10:21 | 51.28077 | 6.76437 | 122 ft | 2 kts | 324° |
| 2026-05-01 10:21 | 51.28072 | 6.76443 | 122 ft | 0 kts | 326° |
| 2026-05-01 10:25 | 51.28127 | 6.76367 | 129 ft | 15 kts | 308° |
| 2026-05-01 10:25 | 51.28168 | 6.76107 | 127 ft | 13 kts | 229° |
| 2026-05-01 10:26 | 51.28119 | 6.76004 | 125 ft | 10 kts | 233° |
| 2026-05-01 10:26 | 51.28080 | 6.75919 | 124 ft | 10 kts | 233° |
| 2026-05-01 10:26 | 51.27976 | 6.75696 | 121 ft | 13 kts | 233° |
| 2026-05-01 10:27 | 51.27861 | 6.75460 | 117 ft | 13 kts | 232° |
| 2026-05-01 10:27 | 51.27924 | 6.75284 | 115 ft | 13 kts | 337° |
| 2026-05-01 10:28 | 51.28007 | 6.75300 | 113 ft | 12 kts | 39° |
| 2026-05-01 10:28 | 51.28049 | 6.75386 | 113 ft | 0 kts | 54° |
| 2026-05-01 10:28 | 51.28079 | 6.75452 | 118 ft | 33 kts | 54° |
| 2026-05-01 10:29 | 51.28915 | 6.77214 | 126 ft | 155 kts | 53° |
| 2026-05-01 10:29 | 51.29586 | 6.78594 | 486 ft | 162 kts | 56° |
| 2026-05-01 10:30 | 51.30881 | 6.81272 | 1971 ft | 149 kts | 62° |
| 2026-05-01 10:30 | 51.32276 | 6.84288 | 2346 ft | 188 kts | 60° |
| 2026-05-01 10:31 | 51.33979 | 6.87995 | 2651 ft | 226 kts | 62° |
| 2026-05-01 10:31 | 51.35201 | 6.92773 | 3220 ft | 244 kts | 95° |
| 2026-05-01 10:32 | 51.34740 | 6.98128 | 4512 ft | 247 kts | 103° |
| 2026-05-01 10:32 | 51.34410 | 7.00843 | 5099 ft | 250 kts | 113° |
| 2026-05-01 10:32 | 51.32177 | 7.05022 | 6194 ft | 255 kts | 141° |
| 2026-05-01 10:33 | 51.29393 | 7.08630 | 7448 ft | 259 kts | 141° |
| 2026-05-01 10:33 | 51.26625 | 7.12407 | 8655 ft | 264 kts | 137° |
| 2026-05-01 10:34 | 51.25280 | 7.14415 | 9276 ft | 266 kts | 136° |
| 2026-05-01 10:34 | 51.23926 | 7.16464 | 9856 ft | 269 kts | 136° |
| 2026-05-01 10:34 | 51.22563 | 7.18527 | 10428 ft | 271 kts | 136° |
| 2026-05-01 10:35 | 51.19814 | 7.22641 | 11509 ft | 275 kts | 136° |
| 2026-05-01 10:35 | 51.18404 | 7.24735 | 12008 ft | 279 kts | 136° |
| 2026-05-01 10:35 | 51.16974 | 7.26855 | 12548 ft | 281 kts | 136° |
| 2026-05-01 10:35 | 51.15536 | 7.28983 | 13083 ft | 283 kts | 136° |
| 2026-05-01 10:36 | 51.12608 | 7.33316 | 14107 ft | 290 kts | 136° |
| 2026-05-01 10:36 | 51.11127 | 7.35506 | 14588 ft | 292 kts | 136° |
| 2026-05-01 10:36 | 51.09651 | 7.37687 | 15058 ft | 294 kts | 135° |
| 2026-05-01 10:37 | 51.08144 | 7.39910 | 15489 ft | 297 kts | 135° |
| 2026-05-01 10:37 | 51.05092 | 7.44404 | 16395 ft | 302 kts | 135° |
| 2026-05-01 10:37 | 51.03550 | 7.46668 | 16857 ft | 303 kts | 135° |
| 2026-05-01 10:38 | 51.01998 | 7.48945 | 17309 ft | 306 kts | 136° |
| 2026-05-01 10:38 | 51.00426 | 7.51255 | 17728 ft | 309 kts | 136° |
| 2026-05-01 10:38 | 50.98849 | 7.53566 | 18215 ft | 310 kts | 136° |
| 2026-05-01 10:38 | 50.97255 | 7.55898 | 18621 ft | 313 kts | 136° |
| 2026-05-01 10:39 | 50.95641 | 7.58257 | 18974 ft | 317 kts | 136° |
| 2026-05-01 10:39 | 50.94024 | 7.60614 | 19334 ft | 319 kts | 135° |
| 2026-05-01 10:39 | 50.92409 | 7.62963 | 19750 ft | 320 kts | 135° |
| 2026-05-01 10:39 | 50.90764 | 7.65357 | 20124 ft | 323 kts | 136° |
| 2026-05-01 10:40 | 50.89102 | 7.67773 | 20471 ft | 326 kts | 135° |
| 2026-05-01 10:40 | 50.87425 | 7.70203 | 20899 ft | 327 kts | 135° |
| 2026-05-01 10:40 | 50.85746 | 7.72638 | 21291 ft | 329 kts | 134° |
| 2026-05-01 10:40 | 50.84047 | 7.75104 | 21619 ft | 333 kts | 134° |
| 2026-05-01 10:41 | 50.82344 | 7.77571 | 21933 ft | 337 kts | 135° |
| 2026-05-01 10:41 | 50.80609 | 7.80076 | 22292 ft | 339 kts | 134° |
| 2026-05-01 10:41 | 50.77094 | 7.85147 | 22935 ft | 346 kts | 135° |
| 2026-05-01 10:42 | 50.75306 | 7.87719 | 23295 ft | 348 kts | 135° |
| 2026-05-01 10:42 | 50.73511 | 7.90300 | 23621 ft | 351 kts | 135° |
| 2026-05-01 10:42 | 50.71745 | 7.92842 | 23952 ft | 353 kts | 135° |
| 2026-05-01 10:42 | 50.69959 | 7.95416 | 24220 ft | 356 kts | 135° |
| 2026-05-01 10:43 | 50.68113 | 7.98066 | 24564 ft | 356 kts | 135° |
| 2026-05-01 10:43 | 50.66305 | 8.00649 | 24876 ft | 356 kts | 135° |
| 2026-05-01 10:43 | 50.64441 | 8.03304 | 25165 ft | 358 kts | 135° |
| 2026-05-01 10:43 | 50.62688 | 8.05800 | 25398 ft | 360 kts | 135° |
| 2026-05-01 10:44 | 50.60735 | 8.08583 | 25658 ft | 363 kts | 135° |
| 2026-05-01 10:44 | 50.58847 | 8.11225 | 25890 ft | 366 kts | 137° |
| 2026-05-01 10:44 | 50.56893 | 8.13839 | 26130 ft | 368 kts | 138° |
| 2026-05-01 10:44 | 50.54920 | 8.16409 | 26401 ft | 370 kts | 139° |
| 2026-05-01 10:45 | 50.52927 | 8.18980 | 26666 ft | 371 kts | 138° |
| 2026-05-01 10:45 | 50.50928 | 8.21557 | 26917 ft | 373 kts | 138° |
| 2026-05-01 10:45 | 50.48919 | 8.24158 | 27160 ft | 374 kts | 137° |
| 2026-05-01 10:45 | 50.46914 | 8.26764 | 27391 ft | 376 kts | 138° |
| 2026-05-01 10:46 | 50.44891 | 8.29401 | 27601 ft | 378 kts | 138° |
| 2026-05-01 10:46 | 50.42888 | 8.32017 | 27790 ft | 381 kts | 137° |
| 2026-05-01 10:46 | 50.40850 | 8.34677 | 28016 ft | 382 kts | 138° |
| 2026-05-01 10:46 | 50.38799 | 8.37350 | 28216 ft | 384 kts | 138° |
| 2026-05-01 10:47 | 50.36739 | 8.40027 | 28423 ft | 386 kts | 138° |
| 2026-05-01 10:47 | 50.34674 | 8.42709 | 28616 ft | 387 kts | 138° |
| 2026-05-01 10:47 | 50.32592 | 8.45409 | 28813 ft | 389 kts | 138° |
| 2026-05-01 10:47 | 50.30504 | 8.48113 | 28946 ft | 391 kts | 138° |
| 2026-05-01 10:48 | 50.28401 | 8.50832 | 29093 ft | 394 kts | 138° |
| 2026-05-01 10:48 | 50.26273 | 8.53558 | 29234 ft | 397 kts | 139° |
| 2026-05-01 10:48 | 50.24122 | 8.56309 | 29405 ft | 398 kts | 139° |
| 2026-05-01 10:48 | 50.21990 | 8.59048 | 29724 ft | 397 kts | 138° |
| 2026-05-01 10:49 | 50.19888 | 8.61762 | 29935 ft | 398 kts | 138° |
| 2026-05-01 10:49 | 50.17755 | 8.64521 | 30111 ft | 399 kts | 138° |
| 2026-05-01 10:49 | 50.15621 | 8.67280 | 30297 ft | 400 kts | 138° |
| 2026-05-01 10:49 | 50.13470 | 8.70053 | 30467 ft | 402 kts | 138° |
| 2026-05-01 10:50 | 50.11311 | 8.72820 | 30608 ft | 403 kts | 138° |
| 2026-05-01 10:50 | 50.09140 | 8.75597 | 30767 ft | 404 kts | 138° |
| 2026-05-01 10:50 | 50.07028 | 8.78493 | 30928 ft | 403 kts | 131° |
| 2026-05-01 10:50 | 50.05286 | 8.81815 | 31081 ft | 401 kts | 121° |
| 2026-05-01 10:51 | 50.03927 | 8.85592 | 31225 ft | 400 kts | 113° |
| 2026-05-01 10:51 | 50.02729 | 8.89501 | 31374 ft | 401 kts | 113° |
| 2026-05-01 10:51 | 50.01521 | 8.93411 | 31523 ft | 402 kts | 113° |
| 2026-05-01 10:51 | 50.00302 | 8.97330 | 31676 ft | 403 kts | 113° |
| 2026-05-01 10:52 | 49.99072 | 9.01263 | 31828 ft | 404 kts | 114° |
| 2026-05-01 10:52 | 49.97838 | 9.05194 | 31971 ft | 405 kts | 114° |
| 2026-05-01 10:52 | 49.96599 | 9.09135 | 32138 ft | 407 kts | 113° |
| 2026-05-01 10:52 | 49.95360 | 9.13086 | 32302 ft | 407 kts | 113° |
| 2026-05-01 10:53 | 49.94132 | 9.17001 | 32368 ft | 408 kts | 113° |
| 2026-05-01 10:53 | 49.91653 | 9.24898 | 32372 ft | 407 kts | 114° |
| 2026-05-01 10:54 | 49.89156 | 9.32805 | 32374 ft | 408 kts | 114° |
| 2026-05-01 10:54 | 49.86650 | 9.40699 | 32551 ft | 409 kts | 114° |
| 2026-05-01 10:54 | 49.85389 | 9.44659 | 32698 ft | 410 kts | 114° |
| 2026-05-01 10:55 | 49.84127 | 9.48622 | 32868 ft | 410 kts | 113° |
| 2026-05-01 10:55 | 49.82732 | 9.52464 | 33126 ft | 410 kts | 122° |
| 2026-05-01 10:55 | 49.81017 | 9.55967 | 33328 ft | 412 kts | 129° |
| 2026-05-01 10:56 | 49.76884 | 9.62149 | 33382 ft | 420 kts | 135° |
| 2026-05-01 10:56 | 49.72610 | 9.68333 | 33370 ft | 421 kts | 134° |
| 2026-05-01 10:57 | 49.68345 | 9.74515 | 33377 ft | 421 kts | 135° |
| 2026-05-01 10:57 | 49.64066 | 9.80685 | 33372 ft | 421 kts | 135° |
| 2026-05-01 10:58 | 49.59821 | 9.86807 | 33375 ft | 420 kts | 135° |
| 2026-05-01 10:58 | 49.55545 | 9.92952 | 33394 ft | 420 kts | 135° |
| 2026-05-01 10:59 | 49.51259 | 9.99073 | 33382 ft | 420 kts | 134° |
| 2026-05-01 10:59 | 49.46975 | 10.05183 | 33382 ft | 420 kts | 134° |
| 2026-05-01 11:00 | 49.42687 | 10.11292 | 33380 ft | 420 kts | 134° |
| 2026-05-01 11:00 | 49.38409 | 10.17386 | 33382 ft | 420 kts | 134° |
| 2026-05-01 11:01 | 49.34146 | 10.23433 | 33391 ft | 420 kts | 135° |
| 2026-05-01 11:01 | 49.29813 | 10.29554 | 33397 ft | 429 kts | 135° |
| 2026-05-01 11:02 | 49.25361 | 10.35832 | 33411 ft | 438 kts | 134° |
| 2026-05-01 11:02 | 49.20351 | 10.41310 | 33414 ft | 452 kts | 147° |
| 2026-05-01 11:03 | 49.14925 | 10.46233 | 33410 ft | 460 kts | 147° |
| 2026-05-01 11:03 | 49.09398 | 10.51253 | 33424 ft | 463 kts | 147° |
| 2026-05-01 11:04 | 49.03856 | 10.56286 | 33410 ft | 463 kts | 147° |
| 2026-05-01 11:04 | 48.98317 | 10.61294 | 33430 ft | 464 kts | 146° |
| 2026-05-01 11:05 | 48.92754 | 10.66304 | 33404 ft | 464 kts | 146° |
| 2026-05-01 11:05 | 48.87206 | 10.71296 | 33404 ft | 464 kts | 146° |
| 2026-05-01 11:06 | 48.81777 | 10.76450 | 33395 ft | 461 kts | 138° |
| 2026-05-01 11:06 | 48.77278 | 10.83252 | 33392 ft | 456 kts | 128° |
| 2026-05-01 11:07 | 48.70893 | 10.93945 | 33691 ft | 456 kts | 128° |
| 2026-05-01 11:07 | 48.68758 | 10.97490 | 33872 ft | 456 kts | 128° |
| 2026-05-01 11:07 | 48.66630 | 11.01034 | 34054 ft | 456 kts | 128° |
| 2026-05-01 11:08 | 48.64505 | 11.04578 | 34214 ft | 455 kts | 128° |
| 2026-05-01 11:08 | 48.62377 | 11.08129 | 34372 ft | 455 kts | 128° |
| 2026-05-01 11:08 | 48.58132 | 11.15214 | 34637 ft | 454 kts | 128° |
| 2026-05-01 11:09 | 48.56011 | 11.18736 | 34773 ft | 454 kts | 128° |
| 2026-05-01 11:09 | 48.53863 | 11.22294 | 34903 ft | 454 kts | 128° |
| 2026-05-01 11:09 | 48.51753 | 11.25784 | 35040 ft | 453 kts | 129° |
| 2026-05-01 11:10 | 48.47546 | 11.32715 | 35324 ft | 452 kts | 128° |
| 2026-05-01 11:10 | 48.45439 | 11.36181 | 35469 ft | 451 kts | 128° |
| 2026-05-01 11:10 | 48.43318 | 11.39664 | 35587 ft | 451 kts | 128° |
| 2026-05-01 11:10 | 48.41201 | 11.43144 | 35710 ft | 450 kts | 128° |
| 2026-05-01 11:11 | 48.39087 | 11.46615 | 35847 ft | 450 kts | 128° |
| 2026-05-01 11:11 | 48.36972 | 11.50088 | 35894 ft | 451 kts | 128° |
| 2026-05-01 11:11 | 48.34857 | 11.53559 | 35395 ft | 450 kts | 128° |
| 2026-05-01 11:11 | 48.32746 | 11.57013 | 34657 ft | 450 kts | 128° |
| 2026-05-01 11:12 | 48.30617 | 11.60485 | 33866 ft | 451 kts | 128° |
| 2026-05-01 11:12 | 48.28525 | 11.63887 | 33470 ft | 448 kts | 129° |
| 2026-05-01 11:12 | 48.26368 | 11.67377 | 33333 ft | 452 kts | 129° |
| 2026-05-01 11:12 | 48.24180 | 11.70705 | 33394 ft | 455 kts | 131° |
| 2026-05-01 11:13 | 48.19509 | 11.77154 | 33374 ft | 458 kts | 134° |
| 2026-05-01 11:13 | 48.14734 | 11.83466 | 33388 ft | 458 kts | 134° |
| 2026-05-01 11:14 | 48.10007 | 11.89844 | 33381 ft | 457 kts | 133° |
| 2026-05-01 11:14 | 48.05343 | 11.96234 | 33381 ft | 458 kts | 133° |
| 2026-05-01 11:15 | 48.00646 | 12.02670 | 33378 ft | 458 kts | 133° |
| 2026-05-01 11:15 | 47.95963 | 12.09039 | 33376 ft | 458 kts | 133° |
| 2026-05-01 11:16 | 47.91253 | 12.15418 | 33371 ft | 458 kts | 133° |
| 2026-05-01 11:16 | 47.86539 | 12.21781 | 33374 ft | 458 kts | 133° |
| 2026-05-01 11:17 | 47.81823 | 12.28147 | 33365 ft | 458 kts | 133° |
| 2026-05-01 11:17 | 47.77134 | 12.34457 | 33365 ft | 458 kts | 133° |
| 2026-05-01 11:18 | 47.72402 | 12.40803 | 33363 ft | 458 kts | 133° |
| 2026-05-01 11:18 | 47.67665 | 12.47127 | 33360 ft | 458 kts | 133° |
| 2026-05-01 11:19 | 47.62929 | 12.53446 | 33361 ft | 458 kts | 133° |
| 2026-05-01 11:19 | 47.58293 | 12.59914 | 33358 ft | 456 kts | 130° |
| 2026-05-01 11:20 | 47.53843 | 12.66510 | 33345 ft | 455 kts | 129° |
| 2026-05-01 11:20 | 47.49367 | 12.73120 | 33668 ft | 453 kts | 129° |
| 2026-05-01 11:21 | 47.47126 | 12.76378 | 33936 ft | 452 kts | 130° |
| 2026-05-01 11:21 | 47.44882 | 12.79615 | 34208 ft | 449 kts | 130° |
| 2026-05-01 11:21 | 47.42639 | 12.82835 | 34326 ft | 451 kts | 130° |
| 2026-05-01 11:21 | 47.40385 | 12.86069 | 34345 ft | 453 kts | 130° |
| 2026-05-01 11:22 | 47.35889 | 12.92520 | 34340 ft | 454 kts | 130° |
| 2026-05-01 11:22 | 47.31355 | 12.99019 | 34340 ft | 454 kts | 130° |
| 2026-05-01 11:23 | 47.26831 | 13.05495 | 34337 ft | 453 kts | 130° |
| 2026-05-01 11:23 | 47.22296 | 13.11971 | 34333 ft | 454 kts | 130° |
| 2026-05-01 11:24 | 47.17780 | 13.18392 | 34335 ft | 454 kts | 130° |
| 2026-05-01 11:25 | 47.10956 | 13.28051 | 34379 ft | 455 kts | 130° |
| 2026-05-01 11:25 | 47.04142 | 13.37697 | 34347 ft | 453 kts | 130° |
| 2026-05-01 11:26 | 46.98101 | 13.46220 | 34352 ft | 454 kts | 130° |
| 2026-05-01 11:27 | 46.92783 | 13.53665 | 34358 ft | 455 kts | 130° |
| 2026-05-01 11:27 | 46.88955 | 13.59005 | 34360 ft | 455 kts | 130° |
| 2026-05-01 11:28 | 46.84392 | 13.65375 | 34357 ft | 453 kts | 130° |
| 2026-05-01 11:28 | 46.79871 | 13.71689 | 34365 ft | 452 kts | 130° |
| 2026-05-01 11:29 | 46.73041 | 13.81190 | 34375 ft | 453 kts | 129° |
| 2026-05-01 11:30 | 46.66194 | 13.90664 | 34410 ft | 452 kts | 129° |
| 2026-05-01 11:30 | 46.61628 | 13.96951 | 34390 ft | 452 kts | 129° |
| 2026-05-01 11:31 | 46.57098 | 14.03190 | 34390 ft | 451 kts | 129° |
| 2026-05-01 11:31 | 46.52543 | 14.09452 | 34401 ft | 451 kts | 129° |
| 2026-05-01 11:32 | 46.47975 | 14.15712 | 34381 ft | 452 kts | 129° |
| 2026-05-01 11:32 | 46.43398 | 14.21968 | 34408 ft | 451 kts | 129° |
| 2026-05-01 11:33 | 46.38839 | 14.28178 | 34380 ft | 450 kts | 129° |
| 2026-05-01 11:33 | 46.34279 | 14.34382 | 34378 ft | 450 kts | 129° |
| 2026-05-01 11:34 | 46.29750 | 14.40532 | 34382 ft | 449 kts | 129° |
| 2026-05-01 11:34 | 46.25187 | 14.46711 | 34392 ft | 450 kts | 129° |
| 2026-05-01 11:35 | 46.20619 | 14.52872 | 34402 ft | 449 kts | 129° |
| 2026-05-01 11:35 | 46.16064 | 14.58998 | 34372 ft | 447 kts | 128° |
| 2026-05-01 11:36 | 46.11546 | 14.65076 | 34388 ft | 447 kts | 128° |
| 2026-05-01 11:36 | 46.07001 | 14.71178 | 34373 ft | 447 kts | 128° |
| 2026-05-01 11:37 | 46.02452 | 14.77275 | 34360 ft | 447 kts | 129° |
| 2026-05-01 11:37 | 45.97892 | 14.83359 | 34369 ft | 445 kts | 128° |
| 2026-05-01 11:38 | 45.93378 | 14.89350 | 34383 ft | 445 kts | 128° |
| 2026-05-01 11:38 | 45.88786 | 14.95333 | 34380 ft | 449 kts | 133° |
| 2026-05-01 11:39 | 45.83826 | 15.00827 | 34379 ft | 451 kts | 133° |
| 2026-05-01 11:39 | 45.78855 | 15.06324 | 34383 ft | 451 kts | 133° |
| 2026-05-01 11:40 | 45.73917 | 15.11765 | 34373 ft | 449 kts | 133° |
| 2026-05-01 11:40 | 45.68968 | 15.17200 | 34385 ft | 449 kts | 133° |
| 2026-05-01 11:41 | 45.64008 | 15.22645 | 34391 ft | 449 kts | 133° |
| 2026-05-01 11:41 | 45.59058 | 15.28068 | 34386 ft | 449 kts | 133° |
| 2026-05-01 11:42 | 45.54174 | 15.33593 | 34382 ft | 445 kts | 130° |
| 2026-05-01 11:42 | 45.49548 | 15.39343 | 34380 ft | 444 kts | 129° |
| 2026-05-01 11:43 | 45.44921 | 15.45191 | 34377 ft | 445 kts | 129° |
| 2026-05-01 11:43 | 45.40245 | 15.50959 | 34381 ft | 446 kts | 130° |
| 2026-05-01 11:44 | 45.33174 | 15.59539 | 34384 ft | 446 kts | 130° |
| 2026-05-01 11:44 | 45.28455 | 15.65258 | 34384 ft | 445 kts | 130° |
| 2026-05-01 11:45 | 45.23768 | 15.70949 | 34374 ft | 447 kts | 130° |
| 2026-05-01 11:45 | 45.19038 | 15.76676 | 34369 ft | 447 kts | 130° |
| 2026-05-01 11:46 | 45.14319 | 15.82381 | 34369 ft | 448 kts | 130° |
| 2026-05-01 11:46 | 45.09567 | 15.88092 | 34366 ft | 447 kts | 131° |
| 2026-05-01 11:47 | 45.04854 | 15.93740 | 34359 ft | 447 kts | 131° |
| 2026-05-01 11:47 | 45.00098 | 15.99446 | 34361 ft | 449 kts | 131° |
| 2026-05-01 11:48 | 44.95329 | 16.05162 | 34361 ft | 450 kts | 131° |
| 2026-05-01 11:48 | 44.90545 | 16.10863 | 34358 ft | 450 kts | 131° |
| 2026-05-01 11:49 | 44.85783 | 16.16517 | 34358 ft | 450 kts | 131° |
| 2026-05-01 11:49 | 44.80995 | 16.22198 | 34357 ft | 450 kts | 131° |
| 2026-05-01 11:50 | 44.76196 | 16.27891 | 34359 ft | 452 kts | 132° |
| 2026-05-01 11:50 | 44.71383 | 16.33587 | 34347 ft | 452 kts | 132° |
| 2026-05-01 11:51 | 44.66596 | 16.39241 | 34352 ft | 452 kts | 132° |
| 2026-05-01 11:51 | 44.61774 | 16.44918 | 34373 ft | 453 kts | 133° |
| 2026-05-01 11:52 | 44.56933 | 16.50610 | 34348 ft | 455 kts | 133° |
| 2026-05-01 11:52 | 44.52069 | 16.56311 | 34342 ft | 456 kts | 133° |
| 2026-05-01 11:53 | 44.47195 | 16.62007 | 34336 ft | 457 kts | 133° |
| 2026-05-01 11:53 | 44.42342 | 16.67665 | 34332 ft | 457 kts | 134° |
| 2026-05-01 11:54 | 44.37451 | 16.73357 | 34328 ft | 458 kts | 134° |
| 2026-05-01 11:54 | 44.32548 | 16.79055 | 34340 ft | 459 kts | 134° |
| 2026-05-01 11:55 | 44.27627 | 16.84757 | 34321 ft | 460 kts | 135° |
| 2026-05-01 11:55 | 44.22708 | 16.90451 | 34322 ft | 460 kts | 135° |
| 2026-05-01 11:56 | 44.17817 | 16.96097 | 34327 ft | 460 kts | 135° |
| 2026-05-01 11:56 | 44.12880 | 17.01780 | 34311 ft | 460 kts | 135° |
| 2026-05-01 11:57 | 44.07939 | 17.07454 | 34312 ft | 462 kts | 136° |
| 2026-05-01 11:57 | 44.02965 | 17.13156 | 34294 ft | 464 kts | 136° |
| 2026-05-01 11:58 | 43.97977 | 17.18856 | 34290 ft | 464 kts | 136° |
| 2026-05-01 11:59 | 43.90510 | 17.27372 | 34266 ft | 464 kts | 136° |
| 2026-05-01 11:59 | 43.85547 | 17.33019 | 34271 ft | 465 kts | 136° |
| 2026-05-01 12:00 | 43.78000 | 17.41581 | 34279 ft | 469 kts | 136° |
| 2026-05-01 12:01 | 43.70408 | 17.50143 | 34259 ft | 470 kts | 136° |
| 2026-05-01 12:01 | 43.65329 | 17.55856 | 34253 ft | 469 kts | 137° |
| 2026-05-01 12:02 | 43.60316 | 17.61502 | 34238 ft | 468 kts | 138° |
| 2026-05-01 12:02 | 43.55228 | 17.67079 | 34232 ft | 468 kts | 143° |
| 2026-05-01 12:03 | 43.49819 | 17.72091 | 34238 ft | 469 kts | 143° |
| 2026-05-01 12:03 | 43.44388 | 17.77114 | 34226 ft | 473 kts | 142° |
| 2026-05-01 12:04 | 43.38914 | 17.82183 | 34219 ft | 475 kts | 142° |
| 2026-05-01 12:04 | 43.33438 | 17.87241 | 34494 ft | 472 kts | 143° |
| 2026-05-01 12:04 | 43.30709 | 17.89753 | 34619 ft | 473 kts | 143° |
| 2026-05-01 12:05 | 43.27979 | 17.92262 | 34721 ft | 473 kts | 143° |
| 2026-05-01 12:05 | 43.22513 | 17.97271 | 34987 ft | 472 kts | 144° |
| 2026-05-01 12:05 | 43.19815 | 17.99740 | 35099 ft | 472 kts | 144° |
| 2026-05-01 12:06 | 43.17081 | 18.02241 | 35217 ft | 472 kts | 144° |
| 2026-05-01 12:06 | 43.14353 | 18.04736 | 35330 ft | 472 kts | 144° |
| 2026-05-01 12:06 | 43.11620 | 18.07239 | 35437 ft | 473 kts | 144° |
| 2026-05-01 12:06 | 43.08885 | 18.09744 | 35557 ft | 473 kts | 144° |
| 2026-05-01 12:07 | 43.06148 | 18.12243 | 35671 ft | 473 kts | 144° |
| 2026-05-01 12:07 | 43.03406 | 18.14737 | 35779 ft | 473 kts | 145° |
| 2026-05-01 12:07 | 43.00668 | 18.17227 | 35901 ft | 473 kts | 145° |
| 2026-05-01 12:07 | 42.97934 | 18.19715 | 36017 ft | 472 kts | 144° |
| 2026-05-01 12:08 | 42.95246 | 18.22159 | 36160 ft | 472 kts | 144° |
| 2026-05-01 12:08 | 42.92505 | 18.24651 | 36193 ft | 474 kts | 145° |
| 2026-05-01 12:08 | 42.86973 | 18.29661 | 36181 ft | 480 kts | 145° |
| 2026-05-01 12:09 | 42.81430 | 18.34657 | 36176 ft | 478 kts | 145° |
| 2026-05-01 12:09 | 42.75866 | 18.39670 | 36172 ft | 481 kts | 146° |
| 2026-05-01 12:10 | 42.67497 | 18.47194 | 36184 ft | 480 kts | 146° |
| 2026-05-01 12:11 | 42.59174 | 18.54655 | 36179 ft | 480 kts | 146° |
| 2026-05-01 12:11 | 42.53597 | 18.59640 | 36189 ft | 481 kts | 146° |
| 2026-05-01 12:12 | 42.47998 | 18.64625 | 36192 ft | 481 kts | 147° |
| 2026-05-01 12:12 | 42.42406 | 18.69598 | 36203 ft | 481 kts | 147° |
| 2026-05-01 12:13 | 42.36803 | 18.74575 | 36206 ft | 481 kts | 147° |
| 2026-05-01 12:13 | 42.31212 | 18.79527 | 36198 ft | 481 kts | 147° |
| 2026-05-01 12:14 | 42.25648 | 18.84448 | 36193 ft | 481 kts | 147° |
| 2026-05-01 12:14 | 42.20052 | 18.89385 | 36188 ft | 481 kts | 148° |
| 2026-05-01 12:15 | 42.14447 | 18.94313 | 36183 ft | 481 kts | 148° |
| 2026-05-01 12:15 | 42.08835 | 18.99237 | 36179 ft | 481 kts | 148° |
| 2026-05-01 12:16 | 42.03215 | 19.04159 | 36179 ft | 481 kts | 148° |
| 2026-05-01 12:16 | 41.97637 | 19.09034 | 36170 ft | 482 kts | 148° |
| 2026-05-01 12:17 | 41.92013 | 19.13944 | 36174 ft | 483 kts | 149° |
| 2026-05-01 12:17 | 41.86368 | 19.18821 | 36169 ft | 483 kts | 150° |
| 2026-05-01 12:18 | 41.80627 | 19.23508 | 36172 ft | 483 kts | 151° |
| 2026-05-01 12:18 | 41.74852 | 19.28101 | 36147 ft | 483 kts | 152° |
| 2026-05-01 12:19 | 41.69075 | 19.32717 | 36145 ft | 484 kts | 151° |
| 2026-05-01 12:19 | 41.63305 | 19.37375 | 36160 ft | 485 kts | 151° |
| 2026-05-01 12:20 | 41.57574 | 19.41990 | 36146 ft | 485 kts | 151° |
| 2026-05-01 12:20 | 41.51786 | 19.46629 | 36145 ft | 485 kts | 152° |
| 2026-05-01 12:21 | 41.46001 | 19.51253 | 36141 ft | 485 kts | 152° |
| 2026-05-01 12:21 | 41.40210 | 19.55872 | 36136 ft | 485 kts | 152° |
| 2026-05-01 12:22 | 41.34415 | 19.60493 | 36138 ft | 486 kts | 152° |
| 2026-05-01 12:22 | 41.28610 | 19.65117 | 36115 ft | 486 kts | 152° |
| 2026-05-01 12:23 | 41.22809 | 19.69730 | 36120 ft | 486 kts | 152° |
| 2026-05-01 12:23 | 41.16999 | 19.74328 | 36121 ft | 486 kts | 153° |
| 2026-05-01 12:24 | 41.11213 | 19.78886 | 36110 ft | 487 kts | 153° |
| 2026-05-01 12:24 | 41.05404 | 19.83465 | 36119 ft | 486 kts | 153° |
| 2026-05-01 12:25 | 40.96675 | 19.90330 | 36109 ft | 487 kts | 153° |
| 2026-05-01 12:26 | 40.90851 | 19.94895 | 36114 ft | 487 kts | 153° |
| 2026-05-01 12:26 | 40.82114 | 20.01744 | 36082 ft | 487 kts | 153° |
| 2026-05-01 12:27 | 40.73376 | 20.08569 | 36092 ft | 487 kts | 153° |
| 2026-05-01 12:28 | 40.64650 | 20.15349 | 36100 ft | 488 kts | 154° |
| 2026-05-01 12:29 | 40.55883 | 20.22140 | 36088 ft | 488 kts | 154° |
| 2026-05-01 12:29 | 40.47109 | 20.28918 | 36079 ft | 488 kts | 154° |
| 2026-05-01 12:30 | 40.38357 | 20.35657 | 36090 ft | 489 kts | 154° |
| 2026-05-01 12:31 | 40.32498 | 20.40172 | 36072 ft | 489 kts | 154° |
| 2026-05-01 12:31 | 40.26627 | 20.44671 | 36016 ft | 487 kts | 155° |
| 2026-05-01 12:31 | 40.23699 | 20.46908 | 35401 ft | 487 kts | 155° |
| 2026-05-01 12:32 | 40.20790 | 20.49135 | 35141 ft | 483 kts | 155° |
| 2026-05-01 12:32 | 40.12036 | 20.55821 | 35068 ft | 488 kts | 155° |
| 2026-05-01 12:33 | 40.06117 | 20.60170 | 35058 ft | 484 kts | 161° |
| 2026-05-01 12:33 | 40.00050 | 20.63882 | 35083 ft | 485 kts | 161° |
| 2026-05-01 12:34 | 39.93929 | 20.67605 | 35096 ft | 485 kts | 161° |
| 2026-05-01 12:34 | 39.87825 | 20.71320 | 35062 ft | 485 kts | 162° |
| 2026-05-01 12:35 | 39.81707 | 20.75047 | 35110 ft | 485 kts | 162° |
| 2026-05-01 12:35 | 39.75580 | 20.78758 | 35112 ft | 486 kts | 162° |
| 2026-05-01 12:36 | 39.69484 | 20.82444 | 35111 ft | 487 kts | 162° |
| 2026-05-01 12:36 | 39.63427 | 20.86434 | 35081 ft | 490 kts | 160° |
| 2026-05-01 12:37 | 39.57419 | 20.90685 | 35108 ft | 493 kts | 159° |
| 2026-05-01 12:37 | 39.51396 | 20.94897 | 35106 ft | 492 kts | 160° |
| 2026-05-01 12:38 | 39.45344 | 20.99014 | 35096 ft | 491 kts | 161° |
| 2026-05-01 12:38 | 39.39285 | 21.03088 | 35062 ft | 491 kts | 161° |
| 2026-05-01 12:39 | 39.33203 | 21.07199 | 35096 ft | 494 kts | 161° |
| 2026-05-01 12:39 | 39.27123 | 21.11333 | 35085 ft | 494 kts | 161° |
| 2026-05-01 12:40 | 39.21072 | 21.15428 | 35101 ft | 494 kts | 161° |
| 2026-05-01 12:40 | 39.14977 | 21.19533 | 35066 ft | 495 kts | 162° |
| 2026-05-01 12:41 | 39.08854 | 21.23646 | 35080 ft | 497 kts | 162° |
| 2026-05-01 12:41 | 39.02715 | 21.27765 | 35099 ft | 498 kts | 162° |
| 2026-05-01 12:42 | 38.96572 | 21.31890 | 35087 ft | 498 kts | 162° |
| 2026-05-01 12:42 | 38.90429 | 21.36016 | 35068 ft | 498 kts | 162° |
| 2026-05-01 12:43 | 38.84335 | 21.40090 | 35075 ft | 498 kts | 162° |
| 2026-05-01 12:43 | 38.78184 | 21.44177 | 35096 ft | 498 kts | 162° |
| 2026-05-01 12:44 | 38.72027 | 21.48265 | 35095 ft | 499 kts | 162° |
| 2026-05-01 12:45 | 38.59715 | 21.56450 | 35097 ft | 499 kts | 162° |
| 2026-05-01 12:45 | 38.53544 | 21.60523 | 35097 ft | 499 kts | 162° |
| 2026-05-01 12:46 | 38.47379 | 21.64589 | 35090 ft | 499 kts | 162° |
| 2026-05-01 12:46 | 38.41256 | 21.68628 | 35089 ft | 499 kts | 162° |
| 2026-05-01 12:47 | 38.35092 | 21.72692 | 35085 ft | 499 kts | 163° |
| 2026-05-01 12:47 | 38.28926 | 21.76744 | 35078 ft | 499 kts | 163° |
| 2026-05-01 12:48 | 38.22761 | 21.80772 | 35087 ft | 498 kts | 163° |
| 2026-05-01 12:48 | 38.16593 | 21.84814 | 35092 ft | 498 kts | 163° |
| 2026-05-01 12:49 | 38.10445 | 21.88838 | 35077 ft | 497 kts | 163° |
| 2026-05-01 12:49 | 38.04335 | 21.92809 | 35084 ft | 496 kts | 163° |
| 2026-05-01 12:50 | 37.98183 | 21.96792 | 35087 ft | 496 kts | 163° |
| 2026-05-01 12:50 | 37.92037 | 22.00777 | 35098 ft | 496 kts | 163° |
| 2026-05-01 12:51 | 37.85908 | 22.04761 | 35089 ft | 495 kts | 163° |
| 2026-05-01 12:51 | 37.79779 | 22.08724 | 35332 ft | 495 kts | 163° |
| 2026-05-01 12:52 | 37.76755 | 22.10676 | 35484 ft | 494 kts | 163° |
| 2026-05-01 12:52 | 37.70635 | 22.14625 | 35746 ft | 494 kts | 163° |
| 2026-05-01 12:52 | 37.67579 | 22.16598 | 35869 ft | 493 kts | 163° |
| 2026-05-01 12:53 | 37.61469 | 22.20529 | 36116 ft | 493 kts | 163° |
| 2026-05-01 12:53 | 37.58419 | 22.22488 | 36232 ft | 492 kts | 163° |
| 2026-05-01 12:53 | 37.55367 | 22.24444 | 36357 ft | 491 kts | 163° |
| 2026-05-01 12:54 | 37.52362 | 22.26365 | 36482 ft | 491 kts | 163° |
| 2026-05-01 12:54 | 37.46278 | 22.30250 | 36737 ft | 489 kts | 163° |
| 2026-05-01 12:54 | 37.43250 | 22.32184 | 36853 ft | 488 kts | 163° |
| 2026-05-01 12:55 | 37.37194 | 22.36052 | 37088 ft | 488 kts | 163° |
| 2026-05-01 12:55 | 37.34160 | 22.37979 | 37107 ft | 489 kts | 163° |
| 2026-05-01 12:56 | 37.28074 | 22.41828 | 37097 ft | 489 kts | 163° |
| 2026-05-01 12:56 | 37.22033 | 22.45645 | 37099 ft | 490 kts | 163° |
| 2026-05-01 12:57 | 37.15945 | 22.49492 | 37094 ft | 490 kts | 163° |
| 2026-05-01 12:57 | 37.06810 | 22.55259 | 37102 ft | 491 kts | 163° |
| 2026-05-01 12:58 | 37.00705 | 22.59110 | 37110 ft | 491 kts | 163° |
| 2026-05-01 12:59 | 36.91599 | 22.64810 | 37102 ft | 490 kts | 163° |
| 2026-05-01 12:59 | 36.82454 | 22.70532 | 37073 ft | 490 kts | 163° |
| 2026-05-01 13:00 | 36.73302 | 22.76244 | 37086 ft | 491 kts | 164° |
| 2026-05-01 13:01 | 36.64148 | 22.81939 | 37070 ft | 491 kts | 163° |
| 2026-05-01 13:02 | 36.55018 | 22.87603 | 37076 ft | 491 kts | 164° |
| 2026-05-01 13:07 | 35.87862 | 23.28844 | 37073 ft | 490 kts | 164° |
| 2026-05-01 13:08 | 35.82772 | 23.31935 | 37030 ft | 490 kts | 164° |
| 2026-05-01 13:08 | 35.76656 | 23.35644 | 37048 ft | 491 kts | 164° |
| 2026-05-01 13:09 | 35.70524 | 23.39356 | 37060 ft | 491 kts | 164° |
| 2026-05-01 13:09 | 35.64394 | 23.43066 | 37048 ft | 491 kts | 164° |
| 2026-05-01 13:10 | 35.58268 | 23.46770 | 37012 ft | 492 kts | 164° |
| 2026-05-01 13:10 | 35.52152 | 23.50453 | 37013 ft | 492 kts | 164° |
| 2026-05-01 13:11 | 35.46002 | 23.54149 | 37023 ft | 493 kts | 164° |
| 2026-05-01 13:11 | 35.39838 | 23.57848 | 37019 ft | 493 kts | 164° |
| 2026-05-01 13:12 | 35.33664 | 23.61549 | 37022 ft | 494 kts | 164° |
| 2026-05-01 13:12 | 35.27497 | 23.65254 | 36981 ft | 494 kts | 164° |
| 2026-05-01 13:13 | 35.21363 | 23.68936 | 36992 ft | 495 kts | 163° |
| 2026-05-01 13:13 | 35.15215 | 23.72788 | 36994 ft | 497 kts | 162° |
| 2026-05-01 13:14 | 35.09109 | 23.76737 | 36989 ft | 497 kts | 162° |
| 2026-05-01 13:14 | 35.02985 | 23.80678 | 36956 ft | 497 kts | 162° |
| 2026-05-01 13:15 | 34.96844 | 23.84556 | 36962 ft | 497 kts | 163° |
| 2026-05-01 13:15 | 34.90728 | 23.88403 | 36977 ft | 498 kts | 162° |
| 2026-05-01 13:16 | 34.84577 | 23.92277 | 36981 ft | 498 kts | 162° |
| 2026-05-01 13:16 | 34.78409 | 23.96160 | 36981 ft | 498 kts | 162° |
| 2026-05-01 13:17 | 34.66086 | 24.03904 | 36967 ft | 499 kts | 162° |
| 2026-05-01 13:18 | 34.56829 | 24.09713 | 36965 ft | 500 kts | 162° |
| 2026-05-01 13:18 | 34.50696 | 24.13556 | 36952 ft | 500 kts | 162° |
| 2026-05-01 13:19 | 34.44508 | 24.17414 | 36957 ft | 500 kts | 162° |
| 2026-05-01 13:20 | 34.35212 | 24.23191 | 36969 ft | 501 kts | 162° |
| 2026-05-01 13:20 | 34.29007 | 24.27051 | 36974 ft | 501 kts | 162° |
| 2026-05-01 13:21 | 34.19748 | 24.32804 | 36945 ft | 501 kts | 162° |
| 2026-05-01 13:21 | 34.13532 | 24.36652 | 36957 ft | 502 kts | 163° |
| 2026-05-01 13:22 | 34.07320 | 24.40477 | 36968 ft | 502 kts | 162° |
| 2026-05-01 13:22 | 34.01122 | 24.44404 | 36973 ft | 509 kts | 156° |
| 2026-05-01 13:23 | 33.98220 | 24.46915 | 36969 ft | 520 kts | 147° |
| 2026-05-01 13:23 | 33.95549 | 24.49784 | 36946 ft | 522 kts | 145° |
| 2026-05-01 13:23 | 33.90142 | 24.55633 | 36945 ft | 523 kts | 146° |
| 2026-05-01 13:24 | 33.84707 | 24.61471 | 36960 ft | 524 kts | 146° |
| 2026-05-01 13:25 | 33.76531 | 24.70216 | 36965 ft | 524 kts | 146° |
| 2026-05-01 13:25 | 33.71081 | 24.76042 | 36971 ft | 525 kts | 146° |
| 2026-05-01 13:26 | 33.65665 | 24.81830 | 36980 ft | 525 kts | 146° |
| 2026-05-01 13:26 | 33.60200 | 24.87654 | 36954 ft | 525 kts | 146° |
| 2026-05-01 13:27 | 33.54738 | 24.93466 | 36964 ft | 526 kts | 146° |
| 2026-05-01 13:27 | 33.46556 | 25.02146 | 36964 ft | 526 kts | 146° |
| 2026-05-01 13:28 | 33.38337 | 25.10861 | 36972 ft | 527 kts | 145° |
| 2026-05-01 13:29 | 33.28596 | 25.24252 | 36976 ft | 535 kts | 136° |
| 2026-05-01 13:31 | 33.14169 | 25.44565 | 36982 ft | 536 kts | 136° |
| 2026-05-01 13:32 | 33.02092 | 25.61460 | 36982 ft | 535 kts | 136° |
| 2026-05-01 13:33 | 32.90033 | 25.78282 | 36956 ft | 536 kts | 136° |
| 2026-05-01 13:34 | 32.80308 | 25.91763 | 36968 ft | 537 kts | 136° |
| 2026-05-01 13:35 | 32.73028 | 26.01818 | 36979 ft | 537 kts | 135° |
| 2026-05-01 13:36 | 32.65712 | 26.11910 | 36983 ft | 537 kts | 136° |
| 2026-05-01 13:36 | 32.59221 | 26.20850 | 36950 ft | 537 kts | 135° |
| 2026-05-01 13:37 | 32.53543 | 26.28658 | 36959 ft | 537 kts | 135° |
| 2026-05-01 13:37 | 32.48661 | 26.35351 | 36970 ft | 537 kts | 135° |
| 2026-05-01 13:38 | 32.41321 | 26.45387 | 36974 ft | 537 kts | 135° |
| 2026-05-01 13:39 | 32.36425 | 26.52056 | 36974 ft | 536 kts | 136° |
| 2026-05-01 13:39 | 32.31567 | 26.58658 | 36975 ft | 536 kts | 135° |
| 2026-05-01 13:40 | 32.26679 | 26.65309 | 36940 ft | 536 kts | 135° |
| 2026-05-01 13:40 | 32.21790 | 26.71952 | 36950 ft | 536 kts | 135° |
| 2026-05-01 13:41 | 32.16884 | 26.78596 | 36962 ft | 536 kts | 135° |
| 2026-05-01 13:41 | 32.12004 | 26.85184 | 36974 ft | 537 kts | 135° |
| 2026-05-01 13:42 | 32.07081 | 26.91819 | 36977 ft | 537 kts | 135° |
| 2026-05-01 13:42 | 32.02166 | 26.98446 | 36986 ft | 537 kts | 135° |
| 2026-05-01 13:43 | 31.97251 | 27.05060 | 36981 ft | 536 kts | 135° |
| 2026-05-01 13:43 | 31.92337 | 27.11659 | 36951 ft | 536 kts | 135° |
| 2026-05-01 13:44 | 31.87451 | 27.18201 | 36967 ft | 536 kts | 135° |
| 2026-05-01 13:44 | 31.82526 | 27.24785 | 36985 ft | 536 kts | 135° |
| 2026-05-01 13:45 | 31.77586 | 27.31375 | 36984 ft | 537 kts | 135° |
| 2026-05-01 13:45 | 31.72654 | 27.37957 | 36994 ft | 537 kts | 135° |
| 2026-05-01 13:46 | 31.67728 | 27.44527 | 36996 ft | 536 kts | 135° |
| 2026-05-01 13:46 | 31.62814 | 27.51055 | 36992 ft | 536 kts | 135° |
| 2026-05-01 13:47 | 31.57874 | 27.57602 | 36998 ft | 536 kts | 135° |
| 2026-05-01 13:47 | 31.52928 | 27.64138 | 36982 ft | 535 kts | 135° |
| 2026-05-01 13:48 | 31.47983 | 27.70643 | 36987 ft | 535 kts | 135° |
| 2026-05-01 13:48 | 31.43025 | 27.77157 | 36993 ft | 535 kts | 135° |
| 2026-05-01 13:49 | 31.38106 | 27.83623 | 36990 ft | 535 kts | 135° |
| 2026-05-01 13:49 | 31.33163 | 27.90123 | 36991 ft | 535 kts | 135° |
| 2026-05-01 13:50 | 31.28210 | 27.96620 | 36987 ft | 535 kts | 135° |
| 2026-05-01 13:50 | 31.23244 | 28.03106 | 36986 ft | 535 kts | 136° |
| 2026-05-01 13:51 | 31.18311 | 28.09533 | 36959 ft | 535 kts | 135° |
| 2026-05-01 13:51 | 31.13352 | 28.15999 | 36976 ft | 535 kts | 135° |
| 2026-05-01 13:52 | 31.08380 | 28.22471 | 36985 ft | 535 kts | 135° |
| 2026-05-01 13:52 | 31.03415 | 28.28927 | 36989 ft | 535 kts | 135° |
| 2026-05-01 13:53 | 30.98438 | 28.35385 | 36980 ft | 535 kts | 135° |
| 2026-05-01 13:53 | 30.91015 | 28.44986 | 37020 ft | 534 kts | 135° |
| 2026-05-01 13:54 | 30.86049 | 28.51404 | 37022 ft | 534 kts | 135° |
| 2026-05-01 13:54 | 30.81076 | 28.57825 | 36993 ft | 534 kts | 135° |
| 2026-05-01 13:55 | 30.76121 | 28.64194 | 36990 ft | 534 kts | 135° |
| 2026-05-01 13:55 | 30.71133 | 28.70596 | 36987 ft | 534 kts | 135° |
| 2026-05-01 13:56 | 30.66149 | 28.76990 | 36973 ft | 534 kts | 135° |
| 2026-05-01 13:56 | 30.61162 | 28.83381 | 36973 ft | 533 kts | 135° |
| 2026-05-01 13:57 | 30.56207 | 28.89716 | 36964 ft | 533 kts | 136° |
| 2026-05-01 13:57 | 30.51215 | 28.96079 | 36964 ft | 533 kts | 135° |
| 2026-05-01 13:58 | 30.46223 | 29.02441 | 36949 ft | 533 kts | 135° |
| 2026-05-01 13:58 | 30.41237 | 29.08790 | 36957 ft | 533 kts | 136° |
| 2026-05-01 13:59 | 30.36239 | 29.15130 | 36968 ft | 533 kts | 136° |
| 2026-05-01 13:59 | 30.31246 | 29.21471 | 36970 ft | 533 kts | 136° |
| 2026-05-01 14:00 | 30.26284 | 29.27764 | 36965 ft | 533 kts | 136° |
| 2026-05-01 14:00 | 30.21282 | 29.34081 | 36968 ft | 532 kts | 136° |
| 2026-05-01 14:01 | 30.16278 | 29.40383 | 36973 ft | 532 kts | 136° |
| 2026-05-01 14:01 | 30.11271 | 29.46689 | 36946 ft | 532 kts | 136° |
| 2026-05-01 14:02 | 30.06266 | 29.52986 | 36958 ft | 532 kts | 136° |
| 2026-05-01 14:02 | 30.01285 | 29.59247 | 36966 ft | 533 kts | 136° |
| 2026-05-01 14:03 | 29.96272 | 29.65533 | 36983 ft | 533 kts | 136° |
| 2026-05-01 14:03 | 29.91241 | 29.71830 | 36993 ft | 534 kts | 136° |
| 2026-05-01 14:04 | 29.86207 | 29.78111 | 36992 ft | 534 kts | 136° |
| 2026-05-01 14:04 | 29.82016 | 29.83339 | 36992 ft | 534 kts | 136° |
| 2026-05-01 14:05 | 29.76163 | 29.90634 | 36994 ft | 533 kts | 136° |
| 2026-05-01 14:05 | 29.71136 | 29.96896 | 37000 ft | 533 kts | 136° |
| 2026-05-01 14:06 | 29.66100 | 30.03149 | 36998 ft | 533 kts | 136° |
| 2026-05-01 14:06 | 29.61084 | 30.09370 | 37002 ft | 533 kts | 136° |
| 2026-05-01 14:07 | 29.56043 | 30.15605 | 36999 ft | 533 kts | 136° |
| 2026-05-01 14:08 | 29.48478 | 30.24955 | 37003 ft | 532 kts | 136° |
| 2026-05-01 14:08 | 29.43430 | 30.31175 | 36997 ft | 532 kts | 136° |
| 2026-05-01 14:09 | 29.38407 | 30.37353 | 36967 ft | 532 kts | 136° |
| 2026-05-01 14:09 | 29.33373 | 30.43589 | 36975 ft | 533 kts | 136° |
| 2026-05-01 14:10 | 29.28364 | 30.49856 | 36986 ft | 533 kts | 136° |
| 2026-05-01 14:10 | 29.23361 | 30.56109 | 36990 ft | 533 kts | 136° |
| 2026-05-01 14:11 | 29.18376 | 30.62307 | 36993 ft | 533 kts | 136° |
| 2026-05-01 14:11 | 29.10837 | 30.71634 | 36998 ft | 533 kts | 136° |
| 2026-05-01 14:12 | 29.05795 | 30.77853 | 37008 ft | 533 kts | 136° |
| 2026-05-01 14:12 | 29.00796 | 30.84033 | 36993 ft | 533 kts | 136° |
| 2026-05-01 14:13 | 28.96578 | 30.89247 | 36998 ft | 533 kts | 136° |
| 2026-05-01 14:13 | 28.90716 | 30.96457 | 36995 ft | 533 kts | 136° |
| 2026-05-01 14:14 | 28.85673 | 31.02650 | 37000 ft | 533 kts | 136° |
| 2026-05-01 14:14 | 28.80619 | 31.08851 | 37001 ft | 533 kts | 136° |
| 2026-05-01 14:15 | 28.75603 | 31.15000 | 37003 ft | 533 kts | 136° |
| 2026-05-01 14:15 | 28.70543 | 31.21193 | 36996 ft | 533 kts | 136° |
| 2026-05-01 14:16 | 28.65523 | 31.27412 | 36973 ft | 534 kts | 136° |
| 2026-05-01 14:16 | 28.60585 | 31.33671 | 36990 ft | 535 kts | 135° |
| 2026-05-01 14:17 | 28.55623 | 31.39974 | 36998 ft | 536 kts | 136° |
| 2026-05-01 14:17 | 28.50615 | 31.46270 | 37015 ft | 536 kts | 136° |
| 2026-05-01 14:18 | 28.45599 | 31.52537 | 36823 ft | 534 kts | 136° |
| 2026-05-01 14:18 | 28.43113 | 31.55650 | 36506 ft | 531 kts | 135° |
| 2026-05-01 14:18 | 28.41472 | 31.57705 | 36366 ft | 532 kts | 135° |
| 2026-05-01 14:19 | 28.38144 | 31.61870 | 35841 ft | 532 kts | 135° |
| 2026-05-01 14:19 | 28.35656 | 31.64984 | 35431 ft | 532 kts | 135° |
| 2026-05-01 14:19 | 28.33166 | 31.68098 | 34970 ft | 532 kts | 134° |
| 2026-05-01 14:19 | 28.30710 | 31.71163 | 34482 ft | 532 kts | 134° |
| 2026-05-01 14:20 | 28.28220 | 31.74267 | 34038 ft | 532 kts | 134° |
| 2026-05-01 14:20 | 28.23241 | 31.80459 | 32988 ft | 531 kts | 134° |
| 2026-05-01 14:20 | 28.20755 | 31.83550 | 32478 ft | 529 kts | 134° |
| 2026-05-01 14:21 | 28.18277 | 31.86634 | 31974 ft | 528 kts | 133° |
| 2026-05-01 14:21 | 28.15803 | 31.89714 | 31483 ft | 528 kts | 134° |
| 2026-05-01 14:21 | 28.13327 | 31.92790 | 31004 ft | 527 kts | 134° |
| 2026-05-01 14:22 | 28.08414 | 31.98873 | 30054 ft | 526 kts | 134° |
| 2026-05-01 14:22 | 28.05943 | 32.01929 | 29505 ft | 526 kts | 134° |
| 2026-05-01 14:22 | 28.03570 | 32.05078 | 28963 ft | 526 kts | 126° |
| 2026-05-01 14:22 | 28.01678 | 32.08604 | 28427 ft | 525 kts | 118° |
| 2026-05-01 14:23 | 27.99953 | 32.12225 | 27914 ft | 521 kts | 118° |
| 2026-05-01 14:23 | 27.98233 | 32.15810 | 27402 ft | 516 kts | 119° |
| 2026-05-01 14:23 | 27.96519 | 32.19358 | 26892 ft | 511 kts | 119° |
| 2026-05-01 14:23 | 27.94844 | 32.22817 | 26391 ft | 506 kts | 119° |
| 2026-05-01 14:24 | 27.93161 | 32.26284 | 25924 ft | 501 kts | 119° |
| 2026-05-01 14:24 | 27.91497 | 32.29723 | 25421 ft | 496 kts | 119° |
| 2026-05-01 14:24 | 27.89857 | 32.33124 | 24931 ft | 491 kts | 119° |
| 2026-05-01 14:24 | 27.88231 | 32.36500 | 24470 ft | 485 kts | 119° |
| 2026-05-01 14:25 | 27.86627 | 32.39823 | 24015 ft | 480 kts | 120° |
| 2026-05-01 14:25 | 27.85031 | 32.43119 | 23560 ft | 475 kts | 120° |
| 2026-05-01 14:25 | 27.83451 | 32.46376 | 23039 ft | 471 kts | 120° |
| 2026-05-01 14:25 | 27.81902 | 32.49563 | 22524 ft | 467 kts | 120° |
| 2026-05-01 14:26 | 27.80344 | 32.52763 | 22000 ft | 463 kts | 120° |
| 2026-05-01 14:26 | 27.77259 | 32.59091 | 21013 ft | 457 kts | 120° |
| 2026-05-01 14:26 | 27.75736 | 32.62218 | 20497 ft | 454 kts | 120° |
| 2026-05-01 14:27 | 27.74219 | 32.65334 | 20021 ft | 450 kts | 120° |
| 2026-05-01 14:27 | 27.72717 | 32.68415 | 19540 ft | 447 kts | 120° |
| 2026-05-01 14:27 | 27.71227 | 32.71467 | 19070 ft | 444 kts | 120° |
| 2026-05-01 14:28 | 27.68261 | 32.77529 | 18147 ft | 438 kts | 121° |
| 2026-05-01 14:28 | 27.66795 | 32.80525 | 17626 ft | 435 kts | 120° |
| 2026-05-01 14:28 | 27.65356 | 32.83468 | 17118 ft | 433 kts | 120° |
| 2026-05-01 14:28 | 27.63907 | 32.86437 | 16613 ft | 430 kts | 120° |
| 2026-05-01 14:29 | 27.62472 | 32.89375 | 16095 ft | 427 kts | 120° |
| 2026-05-01 14:29 | 27.61036 | 32.92303 | 15617 ft | 425 kts | 121° |
| 2026-05-01 14:30 | 27.56769 | 33.00980 | 14185 ft | 418 kts | 120° |
| 2026-05-01 14:30 | 27.55362 | 33.03839 | 13712 ft | 417 kts | 120° |
| 2026-05-01 14:30 | 27.53977 | 33.06655 | 13299 ft | 414 kts | 120° |
| 2026-05-01 14:31 | 27.51194 | 33.12313 | 12793 ft | 411 kts | 120° |
| 2026-05-01 14:31 | 27.49803 | 33.15140 | 12535 ft | 409 kts | 120° |
| 2026-05-01 14:31 | 27.48438 | 33.17912 | 12287 ft | 407 kts | 119° |
| 2026-05-01 14:31 | 27.47067 | 33.20689 | 12031 ft | 405 kts | 119° |
| 2026-05-01 14:32 | 27.45698 | 33.23466 | 11789 ft | 404 kts | 119° |
| 2026-05-01 14:32 | 27.44334 | 33.26232 | 11540 ft | 404 kts | 120° |
| 2026-05-01 14:32 | 27.42972 | 33.28987 | 11291 ft | 402 kts | 120° |
| 2026-05-01 14:32 | 27.41616 | 33.31731 | 11056 ft | 401 kts | 119° |
| 2026-05-01 14:33 | 27.40278 | 33.34431 | 10880 ft | 400 kts | 119° |
| 2026-05-01 14:33 | 27.38989 | 33.37199 | 10906 ft | 400 kts | 113° |
| 2026-05-01 14:33 | 27.38073 | 33.40147 | 10907 ft | 400 kts | 103° |
| 2026-05-01 14:33 | 27.37583 | 33.43195 | 10907 ft | 398 kts | 95° |
| 2026-05-01 14:34 | 27.37224 | 33.46280 | 10806 ft | 396 kts | 96° |
| 2026-05-01 14:34 | 27.36855 | 33.49341 | 10438 ft | 394 kts | 96° |
| 2026-05-01 14:34 | 27.36465 | 33.52379 | 10200 ft | 389 kts | 99° |
| 2026-05-01 14:34 | 27.35667 | 33.55231 | 9955 ft | 372 kts | 114° |
| 2026-05-01 14:35 | 27.34416 | 33.57630 | 9724 ft | 342 kts | 128° |
| 2026-05-01 14:35 | 27.32866 | 33.59561 | 9469 ft | 329 kts | 140° |
| 2026-05-01 14:35 | 27.31063 | 33.61078 | 9212 ft | 321 kts | 152° |
| 2026-05-01 14:35 | 27.29117 | 33.62139 | 8958 ft | 310 kts | 163° |
| 2026-05-01 14:36 | 27.27073 | 33.62803 | 8713 ft | 303 kts | 169° |
| 2026-05-01 14:36 | 27.25040 | 33.63401 | 8463 ft | 302 kts | 168° |
| 2026-05-01 14:36 | 27.23011 | 33.64006 | 8214 ft | 301 kts | 168° |
| 2026-05-01 14:36 | 27.20990 | 33.64613 | 7962 ft | 300 kts | 168° |
| 2026-05-01 14:37 | 27.18984 | 33.65219 | 7641 ft | 298 kts | 168° |
| 2026-05-01 14:37 | 27.16993 | 33.65816 | 7347 ft | 297 kts | 168° |
| 2026-05-01 14:37 | 27.15000 | 33.66408 | 7062 ft | 295 kts | 168° |
| 2026-05-01 14:37 | 27.13030 | 33.66992 | 6782 ft | 289 kts | 168° |
| 2026-05-01 14:38 | 27.11107 | 33.67561 | 6490 ft | 282 kts | 168° |
| 2026-05-01 14:38 | 27.09287 | 33.68103 | 6208 ft | 266 kts | 168° |
| 2026-05-01 14:38 | 27.07523 | 33.68627 | 5913 ft | 260 kts | 168° |
| 2026-05-01 14:38 | 27.05772 | 33.69143 | 5632 ft | 259 kts | 168° |
| 2026-05-01 14:39 | 27.04035 | 33.69653 | 5333 ft | 257 kts | 168° |
| 2026-05-01 14:39 | 27.02308 | 33.70163 | 5048 ft | 256 kts | 167° |
| 2026-05-01 14:39 | 27.00598 | 33.70668 | 4749 ft | 251 kts | 167° |
| 2026-05-01 14:39 | 26.98985 | 33.71207 | 4486 ft | 236 kts | 157° |
| 2026-05-01 14:40 | 26.97622 | 33.72185 | 4198 ft | 232 kts | 136° |
| 2026-05-01 14:40 | 26.96642 | 33.73567 | 3926 ft | 229 kts | 118° |
| 2026-05-01 14:40 | 26.96102 | 33.75203 | 3619 ft | 219 kts | 98° |
| 2026-05-01 14:40 | 26.96035 | 33.76858 | 3331 ft | 208 kts | 79° |
| 2026-05-01 14:41 | 26.96383 | 33.78385 | 3046 ft | 198 kts | 65° |
| 2026-05-01 14:41 | 26.97067 | 33.79695 | 2756 ft | 192 kts | 48° |
| 2026-05-01 14:41 | 26.97996 | 33.80716 | 2490 ft | 182 kts | 36° |
| 2026-05-01 14:41 | 26.98919 | 33.81593 | 2326 ft | 166 kts | 38° |
| 2026-05-01 14:42 | 26.99775 | 33.82413 | 2157 ft | 161 kts | 40° |
| 2026-05-01 14:42 | 27.00614 | 33.83219 | 2119 ft | 159 kts | 36° |
| 2026-05-01 14:42 | 27.01501 | 33.83962 | 2124 ft | 161 kts | 23° |
| 2026-05-01 14:42 | 27.02548 | 33.84331 | 2129 ft | 156 kts | 5° |
| 2026-05-01 14:43 | 27.03610 | 33.84218 | 2136 ft | 152 kts | 348° |
| 2026-05-01 14:43 | 27.04655 | 33.83955 | 2120 ft | 154 kts | 345° |
| 2026-05-01 14:43 | 27.05665 | 33.83679 | 2010 ft | 146 kts | 344° |
| 2026-05-01 14:43 | 27.06637 | 33.83401 | 1863 ft | 141 kts | 344° |
| 2026-05-01 14:44 | 27.07577 | 33.83128 | 1697 ft | 139 kts | 346° |
| 2026-05-01 14:44 | 27.09456 | 33.82579 | 1383 ft | 140 kts | 348° |
| 2026-05-01 14:44 | 27.10406 | 33.82305 | 1273 ft | 140 kts | 345° |
| 2026-05-01 14:45 | 27.11342 | 33.82018 | 1164 ft | 137 kts | 344° |
| 2026-05-01 14:45 | 27.13180 | 33.81464 | 895 ft | 139 kts | 345° |
| 2026-05-01 14:45 | 27.14124 | 33.81184 | 772 ft | 145 kts | 345° |
| 2026-05-01 14:46 | 27.15111 | 33.80893 | 443 ft | 147 kts | 346° |
| 2026-05-01 14:46 | 27.16914 | 33.80377 | 32 ft | 126 kts | 349° |
| 2026-05-01 14:46 | 27.17566 | 33.80208 | 38 ft | 69 kts | 345° |
| 2026-05-01 14:47 | 27.17837 | 33.80124 | 40 ft | 25 kts | 345° |
| 2026-05-01 14:47 | 27.17985 | 33.80074 | 38 ft | 29 kts | 341° |
| 2026-05-01 14:47 | 27.18215 | 33.79995 | 38 ft | 36 kts | 345° |
| 2026-05-01 14:48 | 27.18467 | 33.79994 | 39 ft | 0 kts | 83° |
| 2026-05-01 14:50 | 27.18390 | 33.80114 | 40 ft | 13 kts | 162° |
| 2026-05-01 14:51 | 27.18307 | 33.80144 | 37 ft | 12 kts | 162° |
| 2026-05-01 14:51 | 27.18153 | 33.80185 | 39 ft | 13 kts | 168° |
| 2026-05-01 14:52 | 27.17944 | 33.80244 | 38 ft | 15 kts | 165° |
| 2026-05-01 14:52 | 27.17845 | 33.80276 | 38 ft | 14 kts | 155° |
| 2026-05-01 14:52 | 27.17851 | 33.80467 | 36 ft | 13 kts | 66° |
| 2026-05-01 14:53 | 27.17910 | 33.80512 | 38 ft | 7 kts | 38° |
| 2026-05-01 14:53 | 27.17925 | 33.80551 | 38 ft | 4 kts | 66° |
| 2026-05-01 14:53 | 27.17932 | 33.80575 | 38 ft | 5 kts | 75° |
| 2026-05-01 14:53 | 27.17942 | 33.80622 | 38 ft | 1 kts | 79° |
| 2026-05-01 14:54 | 27.17942 | 33.80623 | 38 ft | 0 kts | 79° |